Time;durP1;ratioP1;P1;durP2;ratioP2;P2;SDS_P1;SDS_P2;PMS_P1;PMS_P2;Temp;Humidity;BMP_temperature;BMP_pressure;BME280_temperature;BME280_humidity;BME280_pressure;Samples;Min_cycle;Max_cycle;Signal;HPM_P1;HPM_P2
2022/01/22 00:00:51;;;;;;;26.63;10.70;;;;;;;-4.16;65.07;97478.16;5048537;28;20049;-70
2022/01/22 00:03:17;;;;;;;28.47;12.20;;;;;;;-4.21;65.39;97474.56;5041436;28;20068;-71
2022/01/22 00:05:43;;;;;;;29.80;12.20;;;;;;;-4.18;65.34;97468.75;5032680;28;20111;-70
2022/01/22 00:08:12;;;;;;;23.17;10.63;;;;;;;-4.16;65.35;97463.97;5034858;28;20045;-70
2022/01/22 00:10:44;;;;;;;25.30;10.93;;;;;;;-4.17;65.31;97471.19;5045939;28;20145;-70
2022/01/22 00:15:43;;;;;;;25.30;11.27;;;;;;;-4.12;65.35;97473.16;5047237;28;20100;-71
2022/01/22 00:18:09;;;;;;;25.13;10.77;;;;;;;-4.19;65.22;97456.44;5041159;28;20045;-68
2022/01/22 00:20:38;;;;;;;28.07;11.27;;;;;;;-4.10;65.08;97473.72;5038896;28;20050;-68
2022/01/22 00:23:08;;;;;;;27.90;10.73;;;;;;;-4.07;65.30;97477.75;5054273;28;20569;-70
2022/01/22 00:25:34;;;;;;;24.03;10.53;;;;;;;-4.13;65.05;97467.00;5048355;28;20049;-70
2022/01/22 00:28:01;;;;;;;26.80;10.57;;;;;;;-4.07;65.34;97475.09;5033845;28;20045;-70
2022/01/22 00:30:28;;;;;;;24.73;10.00;;;;;;;-4.03;65.14;97477.06;5031230;28;20501;-70
2022/01/22 00:32:57;;;;;;;24.67;9.67;;;;;;;-4.04;65.25;97485.31;5047044;28;20518;-70
2022/01/22 00:35:23;;;;;;;24.00;9.88;;;;;;;-4.10;65.33;97475.56;5040588;28;20037;-70
2022/01/22 00:37:54;;;;;;;26.85;9.88;;;;;;;-4.17;65.45;97479.19;5042927;28;20044;-69
2022/01/22 00:40:21;;;;;;;24.47;10.37;;;;;;;-4.09;65.43;97477.19;5051995;28;20044;-69
2022/01/22 00:42:47;;;;;;;;;;;;;;;-4.08;65.40;97482.31;5034173;28;20049;-70
2022/01/22 00:45:16;;;;;;;26.20;9.67;;;;;;;-4.07;65.21;97472.44;5034068;28;19983;-70
2022/01/22 00:47:43;;;;;;;29.70;9.90;;;;;;;-4.06;65.20;97485.56;5042419;28;20054;-70
2022/01/22 00:50:12;;;;;;;26.83;9.87;;;;;;;-4.07;65.18;97483.94;5037254;28;20482;-70
2022/01/22 00:52:39;;;;;;;24.20;9.50;;;;;;;-4.02;65.21;97491.25;5056716;28;20049;-70
2022/01/22 00:55:09;;;;;;;20.07;9.63;;;;;;;-4.04;65.42;97496.81;5049049;28;20052;-70
2022/01/22 00:57:39;;;;;;;23.17;9.80;;;;;;;-4.08;65.38;97492.16;5030970;28;20049;-69
2022/01/22 01:00:09;;;;;;;25.57;9.33;;;;;;;-4.08;65.63;97493.00;5013797;28;20041;-68
2022/01/22 01:02:36;;;;;;;28.63;10.27;;;;;;;-4.03;65.51;97495.75;5029478;28;20081;-69
2022/01/22 01:05:04;;;;;;;27.03;10.47;;;;;;;-4.01;65.31;97499.00;5015722;28;20053;-69
2022/01/22 01:07:30;;;;;;;27.10;10.32;;;;;;;-3.98;65.54;97505.72;5031417;28;20049;-67
2022/01/22 01:09:59;;;;;;;23.15;9.70;;;;;;;-3.97;65.27;97504.69;5028630;28;20051;-70
2022/01/22 01:12:26;;;;;;;;;;;;;;;-3.95;65.26;97507.13;5049101;28;20072;-69
2022/01/22 01:15:13;;;;;;;23.98;9.13;;;;;;;-3.94;65.19;97517.56;5032242;28;19925;-70
2022/01/22 01:32:09;;;;;;;20.90;8.93;;;;;;;-3.97;65.50;97511.91;5039120;28;20421;-69
2022/01/22 01:34:11;;;;;;;20.67;8.77;;;;;;;-3.96;65.32;97510.84;5048045;28;20084;-68
2022/01/22 01:36:38;;;;;;;22.93;8.70;;;;;;;-3.92;65.22;97512.78;5037679;28;20469;-68
2022/01/22 01:39:08;;;;;;;17.98;7.90;;;;;;;-3.89;65.31;97512.34;5034597;28;20049;-68
2022/01/22 01:41:47;;;;;;;21.10;8.73;;;;;;;-3.92;65.22;97510.13;4998160;28;20053;-69
2022/01/22 01:44:18;;;;;;;23.40;9.10;;;;;;;-3.93;65.39;97508.50;5048302;28;20162;-68
2022/01/22 01:46:57;;;;;;;18.40;8.73;;;;;;;-3.97;65.50;97504.69;5063511;28;20048;-68
2022/01/22 01:49:28;;;;;;;22.40;8.20;;;;;;;-3.86;65.23;97511.84;5048110;28;20132;-68
2022/01/22 01:51:57;;;;;;;22.50;7.93;;;;;;;-3.88;65.26;97503.28;5042298;28;20541;-68
2022/01/22 01:55:11;;;;;;;24.10;9.07;;;;;;;-3.84;65.16;97511.59;5047689;28;20426;-68
2022/01/22 02:00:01;;;;;;;27.47;10.57;;;;;;;-3.91;65.33;97519.75;5041754;28;20049;-67
2022/01/22 02:02:45;;;;;;;23.03;10.87;;;;;;;-3.96;65.66;97519.66;5038569;28;20075;-68
2022/01/22 02:05:16;;;;;;;26.97;11.10;;;;;;;-3.89;65.41;97523.00;5041012;28;20076;-67
2022/01/22 02:07:45;;;;;;;27.60;10.43;;;;;;;-3.91;65.54;97534.97;5046838;28;20053;-68
2022/01/22 02:10:21;;;;;;;37.37;10.60;;;;;;;-3.88;65.46;97534.50;5038533;28;20138;-67
2022/01/22 02:24:07;;;;;;;23.25;9.52;;;;;;;-3.86;65.45;97535.06;5038173;28;20049;-67
2022/01/22 02:26:34;;;;;;;24.42;9.02;;;;;;;-3.87;65.49;97538.78;5031131;28;20053;-67
2022/01/22 02:29:01;;;;;;;23.52;9.00;;;;;;;-3.81;65.41;97539.69;5028300;28;20060;-68
2022/01/22 02:32:18;;;;;;;23.93;9.17;;;;;;;-3.85;65.41;97542.03;5039704;28;20076;-68
2022/01/22 02:34:49;;;;;;;23.10;8.73;;;;;;;-3.95;65.24;97528.50;5039520;28;20050;-68
2022/01/22 02:37:19;;;;;;;20.67;9.47;;;;;;;-3.83;65.27;97545.28;5014219;28;20049;-68
2022/01/22 02:39:59;;;;;;;23.27;8.77;;;;;;;-3.85;65.33;97547.38;5020586;28;20132;-68
2022/01/22 02:42:30;;;;;;;19.47;8.60;;;;;;;-3.78;65.30;97548.06;5034265;28;20053;-68
2022/01/22 02:44:57;;;;;;;21.97;8.07;;;;;;;-3.81;65.06;97539.69;5047965;28;20060;-68
2022/01/22 02:47:23;;;;;;;25.20;9.17;;;;;;;-3.75;65.17;97549.44;5031802;28;20053;-68
2022/01/22 02:49:49;;;;;;;18.50;7.97;;;;;;;-3.79;65.16;97548.28;5049575;28;20053;-68
2022/01/22 02:52:18;;;;;;;22.77;8.80;;;;;;;-3.76;65.20;97553.16;5044110;28;20053;-69
2022/01/22 02:54:45;;;;;;;19.00;8.07;;;;;;;-3.80;64.87;97544.00;5036573;28;20561;-68
2022/01/22 02:57:12;;;;;;;19.10;7.53;;;;;;;-3.74;64.97;97557.22;5013854;28;20045;-68
2022/01/22 02:59:41;;;;;;;22.07;8.47;;;;;;;-3.88;65.17;97539.84;5027527;28;20044;-68
2022/01/22 03:02:12;;;;;;;17.97;8.47;;;;;;;-3.86;65.21;97561.78;5025839;28;20056;-67
2022/01/22 03:04:39;;;;;;;19.80;8.07;;;;;;;-3.82;65.20;97564.78;5049814;28;20045;-68
2022/01/22 03:07:09;;;;;;;19.67;8.23;;;;;;;-3.77;65.06;97576.38;5030184;28;20506;-68
2022/01/22 03:09:43;;;;;;;17.33;8.00;;;;;;;-3.82;64.95;97573.63;5039965;28;20107;-68
2022/01/22 03:12:48;;;;;;;20.20;7.73;;;;;;;-3.77;64.83;97579.06;5024015;28;20059;-68
2022/01/22 03:18:04;;;;;;;20.50;8.10;;;;;;;-3.77;64.94;97586.25;5031640;28;20476;-69
2022/01/22 03:27:18;;;;;;;21.10;7.43;;;;;;;-3.83;65.04;97584.53;5031516;28;20398;-68
2022/01/22 03:28:53;;;;;;;21.83;7.22;;;;;;;-3.75;64.78;97589.50;5034701;28;20056;-67
2022/01/22 03:31:19;;;;;;;21.87;7.50;;;;;;;-3.80;64.96;97589.41;5034256;28;20159;-66
2022/01/22 03:33:45;;;;;;;22.83;7.17;;;;;;;-3.77;64.81;97599.59;5050336;28;20195;-67
2022/01/22 03:36:11;;;;;;;18.67;7.83;;;;;;;-3.76;65.09;97599.38;5040245;28;20073;-67
2022/01/22 03:38:41;;;;;;;19.63;8.20;;;;;;;-3.76;64.84;97607.38;5049704;28;20068;-67
2022/01/22 03:41:12;;;;;;;19.83;8.17;;;;;;;-3.80;64.90;97610.75;5049252;28;20059;-68
2022/01/22 03:43:38;;;;;;;22.60;9.17;;;;;;;-3.81;65.12;97619.81;5047961;28;20514;-69
2022/01/22 03:46:05;;;;;;;25.73;8.85;;;;;;;-3.78;64.70;97620.19;5042732;28;20651;-68
2022/01/22 03:48:31;;;;;;;26.20;10.33;;;;;;;-3.75;64.90;97624.22;5044768;28;20045;-68
2022/01/22 03:50:58;;;;;;;24.13;8.50;;;;;;;-3.76;64.47;97606.56;5050478;28;20119;-67
2022/01/22 03:53:26;;;;;;;27.13;10.20;;;;;;;-3.72;64.93;97631.78;5034065;28;20050;-68
2022/01/22 03:56:03;;;;;;;28.30;10.27;;;;;;;-3.75;64.57;97642.91;5049515;28;22323;-66
2022/01/22 03:58:33;;;;;;;28.25;8.65;;;;;;;-3.81;65.10;97643.88;5035278;28;20037;-68
2022/01/22 04:02:04;;;;;;;27.23;9.90;;;;;;;-3.81;64.94;97634.00;5049615;28;20425;-67
2022/01/22 04:04:39;;;;;;;27.57;9.60;;;;;;;-3.77;64.92;97645.84;5044472;28;20049;-67
2022/01/22 04:09:49;;;;;;;30.07;10.43;;;;;;;-3.73;64.63;97651.53;5033525;28;20118;-68
2022/01/22 04:12:20;;;;;;;23.63;9.47;;;;;;;-3.81;64.71;97643.88;5033412;28;20041;-68
2022/01/22 04:14:56;;;;;;;23.87;9.30;;;;;;;-3.74;64.89;97648.03;5049522;28;20065;-67
2022/01/22 04:25:31;;;;;;;31.37;11.37;;;;;;;-3.78;64.67;97662.91;5045938;28;20151;-68
2022/01/22 04:27:58;;;;;;;27.33;11.27;;;;;;;-3.78;64.90;97660.25;5032877;28;20419;-70
2022/01/22 04:30:27;;;;;;;31.90;11.27;;;;;;;-3.78;64.92;97664.75;5039862;28;20554;-68
2022/01/22 04:32:54;;;;;;;32.30;11.60;;;;;;;-3.77;64.72;97666.38;5035645;28;20045;-68
2022/01/22 04:35:24;;;;;;;41.30;12.40;;;;;;;-3.80;64.93;97659.66;5040513;28;20068;-67
2022/01/22 04:37:50;;;;;;;31.30;12.30;;;;;;;-3.80;65.05;97672.19;5042002;28;20080;-68
2022/01/22 04:40:17;;;;;;;31.80;10.88;;;;;;;-3.71;64.85;97670.81;5043796;28;20591;-70
2022/01/22 04:42:44;;;;;;;32.60;10.57;;;;;;;-3.65;64.74;97669.84;5039698;28;20414;-69
2022/01/22 04:45:25;;;;;;;27.10;10.57;;;;;;;-3.68;64.77;97678.34;5038817;28;20053;-70
2022/01/22 04:48:28;;;;;;;25.23;9.80;;;;;;;-3.59;64.50;97682.28;5039133;28;20042;-69
2022/01/22 04:56:11;;;;;;;20.63;9.17;;;;;;;-3.53;64.06;97687.75;5038546;28;20187;-68
2022/01/22 04:58:37;;;;;;;23.97;8.97;;;;;;;-3.46;64.10;97691.06;5035888;28;20041;-68
2022/01/22 05:01:03;;;;;;;23.43;9.83;;;;;;;-3.42;64.12;97697.59;5038108;28;20473;-70
2022/01/22 05:03:34;;;;;;;24.90;9.97;;;;;;;-3.49;64.15;97695.06;5052883;28;20041;-69
2022/01/22 05:06:21;;;;;;;29.13;10.53;;;;;;;-3.60;64.50;97691.31;5040132;28;20076;-69
2022/01/22 05:09:13;;;;;;;22.80;8.97;;;;;;;-3.51;64.83;97709.69;5034373;28;20425;-69
2022/01/22 05:11:58;;;;;;;19.60;9.07;;;;;;;-3.60;64.34;97695.88;5042166;28;20084;-70
2022/01/22 05:14:25;;;;;;;27.57;9.67;;;;;;;-3.44;64.18;97705.84;5039325;28;20087;-70
2022/01/22 05:16:55;;;;;;;27.43;10.90;;;;;;;-3.63;64.61;97715.84;5045949;28;20041;-70
2022/01/22 05:19:31;;;;;;;35.40;11.03;;;;;;;-3.65;65.05;97720.63;5033356;28;20049;-70
2022/01/22 05:22:05;;;;;;;30.43;10.63;;;;;;;-3.60;64.72;97722.59;5042083;28;20056;-69
2022/01/22 05:24:33;;;;;;;33.90;11.40;;;;;;;-3.61;65.03;97735.13;5033099;28;20049;-70
2022/01/22 05:30:25;;;;;;;35.87;11.80;;;;;;;-3.67;65.31;97740.59;5025297;28;20053;-71
2022/01/22 05:38:35;;;;;;;32.55;12.23;;;;;;;-3.63;65.25;97750.56;5016401;28;20041;-70
2022/01/22 05:41:02;;;;;;;32.17;11.33;;;;;;;-3.58;65.42;97753.38;5041707;28;20420;-70
2022/01/22 05:43:28;;;;;;;25.88;11.20;;;;;;;-3.52;64.96;97756.97;5044261;28;20068;-71
2022/01/22 05:45:57;;;;;;;32.27;12.07;;;;;;;-3.55;65.22;97757.44;5067392;28;20317;-71
2022/01/22 05:48:24;;;;;;;30.97;12.33;;;;;;;-3.54;65.05;97756.38;5042080;28;20501;-70
2022/01/22 05:50:56;;;;;;;31.27;13.23;;;;;;;-3.52;65.25;97761.50;5047368;28;20237;-70
2022/01/22 06:01:15;;;;;;;30.83;11.70;;;;;;;-3.51;65.23;97779.16;5039698;28;20053;-69
2022/01/22 06:03:59;;;;;;;28.63;12.03;;;;;;;-3.56;65.36;97782.53;5029369;28;20139;-69
2022/01/22 06:06:27;;;;;;;22.37;10.33;;;;;;;-3.51;65.54;97796.03;5035131;28;20053;-70
2022/01/22 06:08:56;;;;;;;31.67;11.17;;;;;;;-3.54;65.69;97793.00;5028982;28;20045;-70
2022/01/22 06:11:27;;;;;;;30.57;11.53;;;;;;;-3.55;65.51;97794.84;5024353;28;20051;-71
2022/01/22 06:13:54;;;;;;;33.13;13.47;;;;;;;-3.50;65.54;97789.63;5034132;28;20044;-71
2022/01/22 06:16:30;;;;;;;30.63;10.70;;;;;;;-3.50;65.52;97794.16;5034144;28;20052;-69
2022/01/22 06:19:20;;;;;;;27.53;11.63;;;;;;;-3.53;65.65;97802.63;5015044;28;20096;-69
2022/01/22 06:21:52;;;;;;;27.40;10.67;;;;;;;-3.53;65.70;97808.78;5034549;28;20057;-70
2022/01/22 06:24:19;;;;;;;24.67;9.53;;;;;;;-3.52;65.67;97805.06;4998065;28;20068;-69
2022/01/22 06:26:46;;;;;;;19.52;9.48;;;;;;;-3.48;65.62;97802.75;5029314;28;20429;-70
2022/01/22 06:29:12;;;;;;;23.70;10.57;;;;;;;-3.42;65.48;97815.19;5039932;28;20060;-70
2022/01/22 06:31:39;;;;;;;25.60;10.90;;;;;;;-3.49;65.73;97817.97;5038271;28;20049;-69
2022/01/22 06:34:06;;;;;;;;;;;;;;;-3.40;65.61;97817.63;5031079;28;20103;-70
2022/01/22 06:36:33;;;;;;;26.87;10.47;;;;;;;-3.33;65.45;97829.03;5028932;28;19978;-69
2022/01/22 06:42:04;;;;;;;33.83;11.15;;;;;;;-3.42;65.90;97826.69;5028634;28;20084;-71
2022/01/22 06:44:48;;;;;;;23.93;9.93;;;;;;;-3.36;65.78;97835.63;5044817;28;20049;-68
2022/01/22 06:47:33;;;;;;;25.60;11.07;;;;;;;-3.41;66.02;97832.84;5031783;28;20076;-70
2022/01/22 06:49:59;;;;;;;22.40;10.00;;;;;;;-3.45;66.19;97835.16;5055409;28;20144;-69
2022/01/22 06:52:26;;;;;;;29.27;11.10;;;;;;;-3.38;66.24;97839.56;5041239;28;20052;-70
2022/01/22 06:54:59;;;;;;;22.60;10.87;;;;;;;-3.31;65.95;97842.97;5018095;28;20050;-71
2022/01/22 06:57:25;;;;;;;23.75;10.57;;;;;;;-3.29;65.83;97847.00;5033366;28;20079;-71
2022/01/22 06:59:51;;;;;;;24.67;10.77;;;;;;;-3.35;65.71;97844.47;5033655;28;20057;-71
2022/01/22 07:02:19;;;;;;;27.42;11.07;;;;;;;-3.24;65.91;97858.88;5030427;28;20421;-71
2022/01/22 07:04:49;;;;;;;25.92;10.82;;;;;;;-3.17;65.87;97867.59;5048329;28;20053;-70
2022/01/22 07:07:51;;;;;;;28.03;11.60;;;;;;;-3.19;65.46;97875.03;5027332;28;20048;-69
2022/01/22 07:10:20;;;;;;;23.63;10.40;;;;;;;-3.15;65.72;97878.88;5028557;28;20045;-70
2022/01/22 07:12:46;;;;;;;23.67;10.10;;;;;;;-3.26;65.81;97879.69;5045270;28;20049;-70
2022/01/22 07:15:13;;;;;;;23.97;10.67;;;;;;;-3.13;65.39;97885.63;5023534;28;20421;-70
2022/01/22 07:17:40;;;;;;;24.27;10.03;;;;;;;-3.14;65.74;97893.88;5042681;28;20041;-70
2022/01/22 07:20:20;;;;;;;20.87;9.90;;;;;;;-3.12;65.66;97889.13;5045274;28;20132;-70
2022/01/22 07:22:51;;;;;;;20.90;9.70;;;;;;;-3.01;65.61;97904.34;5046035;28;20541;-70
2022/01/22 07:25:57;;;;;;;26.43;9.90;;;;;;;-2.99;65.41;97907.59;5018616;28;20441;-70
2022/01/22 07:28:30;;;;;;;22.67;10.17;;;;;;;-2.95;65.17;97910.63;5029975;28;20114;-70
2022/01/22 07:30:59;;;;;;;25.60;11.30;;;;;;;-3.02;65.34;97921.44;5035275;28;20057;-70
2022/01/22 07:33:28;;;;;;;23.40;10.63;;;;;;;-3.11;65.39;97906.78;5037047;28;20127;-71
2022/01/22 07:35:54;;;;;;;22.73;9.97;;;;;;;-2.98;65.44;97929.81;5032127;28;20069;-70
2022/01/22 07:38:21;;;;;;;22.53;11.10;;;;;;;-2.93;65.27;97940.63;5031372;28;20103;-70
2022/01/22 07:40:47;;;;;;;24.73;10.63;;;;;;;-3.06;65.41;97930.13;5046349;28;20059;-70
2022/01/22 07:43:23;;;;;;;23.80;9.60;;;;;;;-2.91;65.28;97941.19;5016511;28;20110;-69
2022/01/22 07:46:08;;;;;;;21.67;10.20;;;;;;;-2.92;65.24;97946.78;5031009;28;20061;-70
2022/01/22 07:49:07;;;;;;;21.20;10.07;;;;;;;-2.84;64.85;97951.78;5021210;28;20438;-70
2022/01/22 07:51:45;;;;;;;23.70;10.95;;;;;;;-2.72;64.65;97959.81;5025345;28;20511;-70
2022/01/22 07:54:11;;;;;;;23.73;10.87;;;;;;;-2.79;64.62;97956.44;5024662;28;20042;-71
2022/01/22 07:56:37;;;;;;;25.70;9.77;;;;;;;-2.73;64.56;97952.84;5044060;28;20045;-70
2022/01/22 07:59:05;;;;;;;23.73;10.10;;;;;;;-2.69;64.37;97974.59;5032149;28;20049;-70
2022/01/22 08:01:36;;;;;;;23.63;10.83;;;;;;;-2.77;64.93;97970.41;5041777;28;20055;-69
2022/01/22 08:04:15;;;;;;;24.47;10.00;;;;;;;-2.69;64.45;97970.06;5032759;28;20096;-70
2022/01/22 08:07:03;;;;;;;21.60;10.33;;;;;;;-2.75;64.90;97977.16;5033785;28;20053;-69
2022/01/22 08:09:41;;;;;;;22.20;10.13;;;;;;;-2.65;64.72;97973.88;5040571;28;20052;-69
2022/01/22 08:12:16;;;;;;;21.70;10.43;;;;;;;-2.52;64.35;97986.22;5029750;28;20053;-68
2022/01/22 08:14:44;;;;;;;25.93;11.00;;;;;;;-2.66;64.74;97988.31;5049775;28;20056;-70
2022/01/22 08:17:11;;;;;;;24.90;11.13;;;;;;;-2.70;65.08;97981.81;5047661;28;20041;-70
2022/01/22 08:19:38;;;;;;;23.30;10.68;;;;;;;-2.68;65.20;97987.75;5010178;28;20081;-70
2022/01/22 08:22:24;;;;;;;25.83;11.03;;;;;;;-2.78;65.39;97976.78;5049203;28;20048;-71
2022/01/22 08:25:10;;;;;;;25.43;10.97;;;;;;;-2.66;65.12;97998.19;5039801;28;20516;-70
2022/01/22 08:28:52;;;;;;;25.27;11.05;;;;;;;-2.53;64.85;97997.97;5041035;28;20038;-73
2022/01/22 08:30:29;;;;;;;21.23;10.73;;;;;;;-2.49;64.66;97996.47;5049410;28;20061;-71
2022/01/22 08:35:53;;;;;;;24.80;11.97;;;;;;;-2.35;64.34;98004.22;5041354;28;20041;-66
2022/01/22 08:38:21;;;;;;;24.30;11.50;;;;;;;-2.38;64.17;98010.88;5037240;28;20046;-66
2022/01/22 08:40:48;;;;;;;23.75;11.75;;;;;;;-2.44;64.45;98011.81;5047732;28;20517;-67
2022/01/22 08:43:14;;;;;;;27.33;11.13;;;;;;;-2.42;64.39;98001.69;5050604;28;20051;-68
2022/01/22 08:45:43;;;;;;;23.00;11.50;;;;;;;-2.38;64.53;98016.25;5033746;28;20052;-67
2022/01/22 08:48:09;;;;;;;30.13;11.83;;;;;;;-2.39;64.53;98019.13;5042516;28;20391;-68
2022/01/22 08:50:36;;;;;;;24.30;11.20;;;;;;;-2.38;64.53;98026.94;5048480;28;20071;-69
2022/01/22 08:53:03;;;;;;;24.87;11.20;;;;;;;-2.32;64.44;98025.22;5048524;28;20067;-68
2022/01/22 08:55:30;;;;;;;24.77;11.35;;;;;;;-2.26;64.26;98032.28;5044674;28;20128;-70
2022/01/22 08:57:56;;;;;;;24.13;11.15;;;;;;;-2.25;64.42;98033.13;5045568;28;20111;-68
2022/01/22 09:00:47;;;;;;;25.73;11.57;;;;;;;-2.26;64.42;98026.94;5044496;28;20068;-67
2022/01/22 09:03:21;;;;;;;26.43;11.67;;;;;;;-2.25;64.56;98041.94;5047405;28;20041;-69
2022/01/22 09:06:06;;;;;;;22.70;11.07;;;;;;;-2.23;64.45;98031.03;5045049;28;20052;-69
2022/01/22 09:08:50;;;;;;;24.37;11.47;;;;;;;-2.16;64.20;98045.91;5043410;28;20049;-69
2022/01/22 09:11:19;;;;;;;22.57;10.33;;;;;;;-2.09;63.99;98048.47;5049671;28;20049;-66
2022/01/22 09:14:15;;;;;;;24.43;12.33;;;;;;;-2.04;63.91;98050.41;5044225;28;20182;-68
2022/01/22 09:16:48;;;;;;;26.37;11.97;;;;;;;-2.15;63.93;98055.56;5046203;28;20045;-66
2022/01/22 09:19:18;;;;;;;27.20;12.43;;;;;;;-2.13;64.06;98060.69;5044226;28;20041;-67
2022/01/22 09:21:47;;;;;;;27.23;12.17;;;;;;;-2.04;63.62;98050.41;5050873;28;20159;-69
2022/01/22 09:24:16;;;;;;;23.97;12.43;;;;;;;-1.80;63.10;98066.47;5047398;28;20075;-69
2022/01/22 09:26:45;;;;;;;29.80;13.80;;;;;;;-1.84;63.21;98084.06;5049856;28;20049;-69
2022/01/22 09:29:12;;;;;;;31.37;13.23;;;;;;;-1.77;63.23;98090.94;5050438;28;20055;-69
2022/01/22 09:31:38;;;;;;;29.40;13.93;;;;;;;-1.75;62.91;98088.00;5043258;28;20494;-68
2022/01/22 09:34:12;;;;;;;28.93;12.77;;;;;;;-1.81;62.53;98080.91;5035193;28;20100;-69
2022/01/22 09:36:57;;;;;;;24.67;11.80;;;;;;;-1.67;62.46;98097.53;5031357;28;20099;-68
2022/01/22 09:39:47;;;;;;;24.50;11.90;;;;;;;-1.70;62.44;98098.84;5034702;28;20048;-68
2022/01/22 09:42:34;;;;;;;27.53;12.80;;;;;;;-1.78;62.72;98099.19;5041088;28;20512;-68
2022/01/22 09:45:12;;;;;;;26.92;13.05;;;;;;;-1.78;62.71;98099.19;5034751;28;20045;-66
2022/01/22 09:48:00;;;;;;;;;;;;;;;-1.77;62.58;98103.50;5033471;28;20049;-69
2022/01/22 09:50:36;;;;;;;25.80;12.63;;;;;;;-1.84;62.67;98095.59;5039985;28;20409;-67
2022/01/22 09:53:23;;;;;;;26.07;11.67;;;;;;;-1.80;62.71;98101.31;5013497;28;20509;-67
2022/01/22 09:56:30;;;;;;;24.43;11.80;;;;;;;-1.88;62.80;98105.94;5014278;28;20427;-68
2022/01/22 09:59:16;;;;;;;29.40;11.75;;;;;;;-1.92;63.12;98106.69;5013334;28;20106;-68
2022/01/22 10:02:10;;;;;;;30.20;12.82;;;;;;;-2.02;63.37;98107.28;5023164;28;20053;-67
2022/01/22 10:04:37;;;;;;;28.87;12.40;;;;;;;-2.03;63.59;98105.63;5039753;28;20624;-67
2022/01/22 10:07:34;;;;;;;26.17;11.40;;;;;;;-2.05;63.72;98083.63;5045141;28;20414;-72
2022/01/22 10:10:20;;;;;;;29.90;11.98;;;;;;;-1.91;63.70;98098.41;5044143;28;20040;-69
2022/01/22 10:13:43;;;;;;;27.20;13.30;;;;;;;-1.84;63.61;98105.50;5045490;28;20122;-68
2022/01/22 10:16:23;;;;;;;31.70;14.03;;;;;;;-1.80;63.72;98102.09;5047314;28;20059;-68
2022/01/22 10:19:12;;;;;;;31.70;14.07;;;;;;;-1.77;63.72;98108.88;5044347;28;20041;-69
2022/01/22 10:21:42;;;;;;;39.27;15.37;;;;;;;-1.71;63.48;98113.31;5032547;28;20049;-69
2022/01/22 10:24:38;;;;;;;32.27;15.10;;;;;;;-1.79;63.77;98125.19;5017589;28;20141;-69
2022/01/22 10:29:51;;;;;;;34.87;15.23;;;;;;;-1.71;63.91;98121.34;5037729;28;20049;-69
2022/01/22 10:32:18;;;;;;;31.03;15.13;;;;;;;-1.64;63.66;98126.53;5041887;28;20053;-68
2022/01/22 10:35:08;;;;;;;35.40;15.55;;;;;;;-1.64;63.44;98126.53;5022597;28;20041;-68
2022/01/22 10:38:15;;;;;;;36.23;14.30;;;;;;;-1.63;63.55;98130.88;4996490;28;20193;-68
2022/01/22 10:40:42;;;;;;;;;;;;;;;-1.64;63.67;98140.78;4991757;28;20058;-68
2022/01/22 10:43:19;;;;;;;29.42;13.40;;;;;;;-1.69;63.35;98126.44;5018689;28;19967;-68
2022/01/22 10:46:08;;;;;;;37.25;14.52;;;;;;;-1.67;63.45;98135.06;5042888;28;20142;-68
2022/01/22 10:48:40;;;;;;;30.43;13.90;;;;;;;-1.61;63.37;98145.66;5031287;28;20037;-67
2022/01/22 10:51:08;;;;;;;30.10;14.13;;;;;;;-1.54;63.15;98155.47;5053183;28;20373;-67
2022/01/22 10:53:38;;;;;;;35.43;15.23;;;;;;;-1.61;63.22;98148.34;5040752;28;20599;-68
2022/01/22 10:56:07;;;;;;;33.47;15.47;;;;;;;-1.61;63.36;98153.69;5024234;28;20045;-73
2022/01/22 10:58:34;;;;;;;36.53;15.20;;;;;;;-1.60;63.35;98155.31;5051339;28;20460;-67
2022/01/22 11:01:03;;;;;;;37.25;16.15;;;;;;;-1.55;63.37;98160.00;5039142;28;20049;-68
2022/01/22 11:03:29;;;;;;;38.30;14.87;;;;;;;-1.53;63.26;98165.94;5034548;28;20052;-67
2022/01/22 11:05:57;;;;;;;29.30;14.97;;;;;;;-1.56;63.22;98166.41;5046353;28;20094;-68
2022/01/22 11:08:23;;;;;;;39.50;15.82;;;;;;;-1.54;63.19;98166.19;5056988;28;20099;-65
2022/01/22 11:10:52;;;;;;;41.38;15.75;;;;;;;-1.55;63.43;98177.97;5038789;28;20040;-72
2022/01/22 11:13:19;;;;;;;38.75;16.98;;;;;;;-1.46;63.35;98163.94;5036965;28;20519;-72
2022/01/22 11:15:50;;;;;;;39.30;16.03;;;;;;;-1.43;63.17;98174.19;5019374;28;20045;-73
2022/01/22 11:18:18;;;;;;;;;;;;;;;-1.45;63.25;98183.53;5033535;28;20049;-72
2022/01/22 11:20:45;;;;;;;35.30;15.32;;;;;;;-1.43;63.28;98186.78;5038453;28;19931;-72
2022/01/22 11:23:13;;;;;;;37.37;14.90;;;;;;;-1.42;63.17;98191.09;5041632;28;20049;-72
2022/01/22 11:25:41;;;;;;;35.53;15.35;;;;;;;-1.53;63.26;98183.91;5042783;28;20395;-71
2022/01/22 11:28:08;;;;;;;34.03;14.50;;;;;;;-1.62;63.39;98176.19;5050322;28;20082;-72
2022/01/22 11:30:36;;;;;;;34.20;14.93;;;;;;;-1.45;63.23;98202.28;5047216;28;20128;-71
2022/01/22 11:33:07;;;;;;;32.07;14.80;;;;;;;-1.48;62.98;98210.81;5042603;28;20091;-71
2022/01/22 11:35:47;;;;;;;29.43;14.70;;;;;;;-1.41;63.09;98219.53;5049030;28;20049;-71
2022/01/22 11:38:17;;;;;;;37.80;15.37;;;;;;;-1.39;63.12;98219.31;5049989;28;20518;-71
2022/01/22 11:41:02;;;;;;;34.37;15.60;;;;;;;-1.42;63.17;98220.59;5040335;28;20401;-71
2022/01/22 11:43:51;;;;;;;34.83;15.27;;;;;;;-1.39;63.06;98230.03;5039779;28;20044;-71
2022/01/22 11:46:26;;;;;;;35.30;16.57;;;;;;;-1.33;62.96;98232.59;5032515;28;20049;-71
2022/01/22 11:49:09;;;;;;;33.93;15.90;;;;;;;-1.38;63.11;98237.84;5033145;28;20118;-71
2022/01/22 11:51:35;;;;;;;34.53;15.60;;;;;;;-1.36;63.11;98242.97;5040961;28;20060;-70
2022/01/22 11:54:02;;;;;;;35.90;15.17;;;;;;;-1.47;63.17;98247.28;5034242;28;20053;-72
2022/01/22 11:56:29;;;;;;;35.23;16.73;;;;;;;-1.41;63.37;98251.69;5043660;28;20135;-73
2022/01/22 11:59:28;;;;;;;31.42;15.13;;;;;;;-1.40;63.28;98261.41;5043577;28;20049;-70
2022/01/22 12:02:03;;;;;;;30.27;14.37;;;;;;;-1.44;63.42;98263.72;5035715;28;20038;-70
2022/01/22 12:04:50;;;;;;;33.60;14.73;;;;;;;-1.49;63.63;98266.28;5002068;28;20057;-73
2022/01/22 12:07:20;;;;;;;;;;;;;;;-1.44;63.58;98269.09;5026625;28;20054;-74
2022/01/22 12:16:13;;;;;;;26.30;12.57;;;;;;;-1.48;63.70;98288.56;5034352;28;20627;-74
2022/01/22 12:18:57;;;;;;;30.40;13.77;;;;;;;-1.53;63.68;98293.81;5035644;28;20387;-71
2022/01/22 12:21:34;;;;;;;31.20;13.23;;;;;;;-1.53;63.97;98291.94;5047520;28;20044;-70
2022/01/22 12:24:03;;;;;;;29.05;12.77;;;;;;;-1.59;64.04;98304.41;5036152;28;20055;-70
2022/01/22 12:27:03;;;;;;;26.40;13.13;;;;;;;-1.60;64.32;98316.16;5052466;28;20057;-70
2022/01/22 12:29:37;;;;;;;29.13;13.00;;;;;;;-1.62;64.25;98315.59;5051644;28;20094;-69
2022/01/22 12:32:16;;;;;;;29.03;13.43;;;;;;;-1.62;64.50;98312.91;5037073;28;20187;-70
2022/01/22 12:35:08;;;;;;;25.07;12.83;;;;;;;-1.69;64.62;98314.91;5033816;28;20498;-72
2022/01/22 12:37:41;;;;;;;31.90;14.33;;;;;;;-1.67;64.68;98322.69;5034869;28;20053;-69
2022/01/22 12:40:09;;;;;;;33.93;13.93;;;;;;;-1.72;64.81;98328.72;5039383;28;20043;-75
2022/01/22 12:42:52;;;;;;;;;;;;;;;-1.69;64.86;98333.66;5037914;28;20045;-71
2022/01/22 12:45:24;;;;;;;30.77;13.67;;;;;;;-1.70;64.62;98337.38;5034157;28;19925;-71
2022/01/22 12:47:51;;;;;;;30.90;13.70;;;;;;;-1.61;64.54;98337.88;5034002;28;20049;-72
2022/01/22 12:50:27;;;;;;;37.53;14.73;;;;;;;-1.69;64.72;98333.66;5033983;28;20046;-71
2022/01/22 12:52:55;;;;;;;27.70;13.67;;;;;;;-1.60;64.65;98351.03;5036815;28;20143;-72
2022/01/22 12:55:39;;;;;;;35.50;15.40;;;;;;;-1.67;64.85;98336.91;5034039;28;20053;-70
2022/01/22 12:58:05;;;;;;;37.60;14.27;;;;;;;-1.71;64.86;98343.78;5032716;28;20049;-70
2022/01/22 13:00:31;;;;;;;33.33;14.83;;;;;;;-1.73;65.18;98344.00;5037701;28;20041;-71
2022/01/22 13:03:01;;;;;;;31.20;14.87;;;;;;;-1.61;64.97;98359.31;5051511;28;20049;-70
2022/01/22 13:05:31;;;;;;;33.00;14.83;;;;;;;-1.61;64.97;98364.69;5053386;28;20057;-71
2022/01/22 13:08:27;;;;;;;29.43;14.33;;;;;;;-1.61;65.00;98360.13;5036708;28;20034;-70
2022/01/22 13:11:11;;;;;;;27.97;13.47;;;;;;;-1.61;64.96;98370.84;5016166;28;20055;-70
2022/01/22 13:13:41;;;;;;;34.73;14.50;;;;;;;-1.67;64.94;98363.72;5042049;28;20186;-70
2022/01/22 13:16:11;;;;;;;34.87;14.53;;;;;;;-1.67;65.30;98378.97;5043500;28;20045;-71
2022/01/22 13:18:43;;;;;;;30.90;14.23;;;;;;;-1.71;65.14;98368.72;5040957;28;20041;-71